sensor_id;sensor_type;location;lat;lon;timestamp;P1;durP1;ratioP1;P2;durP2;ratioP2
43817;SDS011;29868;47.360;18.984;2023-06-26T00:01:40;15.35;;;10.90;;
43817;SDS011;29868;47.360;18.984;2023-06-26T00:04:07;13.95;;;10.10;;
43817;SDS011;29868;47.360;18.984;2023-06-26T00:06:39;15.18;;;10.45;;
43817;SDS011;29868;47.360;18.984;2023-06-26T00:09:06;15.02;;;10.93;;
43817;SDS011;29868;47.360;18.984;2023-06-26T00:11:31;14.20;;;10.35;;
43817;SDS011;29868;47.360;18.984;2023-06-26T00:13:58;12.70;;;10.40;;
43817;SDS011;29868;47.360;18.984;2023-06-26T00:16:27;14.60;;;10.77;;
43817;SDS011;29868;47.360;18.984;2023-06-26T00:18:53;17.00;;;11.32;;
43817;SDS011;29868;47.360;18.984;2023-06-26T00:21:18;15.00;;;10.90;;
43817;SDS011;29868;47.360;18.984;2023-06-26T00:23:45;14.38;;;10.95;;
43817;SDS011;29868;47.360;18.984;2023-06-26T00:26:11;14.60;;;11.38;;
43817;SDS011;29868;47.360;18.984;2023-06-26T00:28:36;14.45;;;10.75;;
43817;SDS011;29868;47.360;18.984;2023-06-26T00:31:02;14.55;;;11.40;;
43817;SDS011;29868;47.360;18.984;2023-06-26T00:33:28;16.45;;;11.05;;
43817;SDS011;29868;47.360;18.984;2023-06-26T00:35:53;13.90;;;11.25;;
43817;SDS011;29868;47.360;18.984;2023-06-26T00:38:19;16.90;;;11.43;;
43817;SDS011;29868;47.360;18.984;2023-06-26T00:40:44;15.30;;;11.45;;
43817;SDS011;29868;47.360;18.984;2023-06-26T00:43:10;15.32;;;11.80;;
43817;SDS011;29868;47.360;18.984;2023-06-26T00:45:35;16.10;;;11.80;;
43817;SDS011;29868;47.360;18.984;2023-06-26T00:48:01;16.27;;;12.15;;
43817;SDS011;29868;47.360;18.984;2023-06-26T00:50:27;14.82;;;12.25;;
43817;SDS011;29868;47.360;18.984;2023-06-26T00:52:52;15.95;;;12.10;;
43817;SDS011;29868;47.360;18.984;2023-06-26T00:55:20;14.93;;;12.02;;
43817;SDS011;29868;47.360;18.984;2023-06-26T00:57:45;15.43;;;11.95;;
43817;SDS011;29868;47.360;18.984;2023-06-26T01:00:11;14.68;;;11.57;;
43817;SDS011;29868;47.360;18.984;2023-06-26T01:02:38;14.07;;;11.48;;
43817;SDS011;29868;47.360;18.984;2023-06-26T01:05:03;15.27;;;12.23;;
43817;SDS011;29868;47.360;18.984;2023-06-26T01:07:32;16.33;;;11.73;;
43817;SDS011;29868;47.360;18.984;2023-06-26T01:10:01;15.82;;;12.13;;
43817;SDS011;29868;47.360;18.984;2023-06-26T01:12:30;16.23;;;12.18;;
43817;SDS011;29868;47.360;18.984;2023-06-26T01:14:57;15.73;;;12.30;;
43817;SDS011;29868;47.360;18.984;2023-06-26T01:17:24;17.10;;;12.73;;
43817;SDS011;29868;47.360;18.984;2023-06-26T01:19:52;14.00;;;11.60;;
43817;SDS011;29868;47.360;18.984;2023-06-26T01:25:21;16.65;;;12.23;;
43817;SDS011;29868;47.360;18.984;2023-06-26T01:27:54;16.38;;;12.77;;
43817;SDS011;29868;47.360;18.984;2023-06-26T01:30:21;16.38;;;13.27;;
43817;SDS011;29868;47.360;18.984;2023-06-26T01:32:48;17.42;;;12.10;;
43817;SDS011;29868;47.360;18.984;2023-06-26T01:35:15;17.88;;;13.02;;
43817;SDS011;29868;47.360;18.984;2023-06-26T01:37:41;17.15;;;12.73;;
43817;SDS011;29868;47.360;18.984;2023-06-26T01:40:06;15.02;;;12.52;;
43817;SDS011;29868;47.360;18.984;2023-06-26T01:42:32;17.58;;;13.15;;
43817;SDS011;29868;47.360;18.984;2023-06-26T01:45:00;17.02;;;13.13;;
43817;SDS011;29868;47.360;18.984;2023-06-26T01:47:31;18.85;;;14.02;;
43817;SDS011;29868;47.360;18.984;2023-06-26T01:50:04;19.00;;;13.43;;
43817;SDS011;29868;47.360;18.984;2023-06-26T01:52:41;16.58;;;13.10;;
43817;SDS011;29868;47.360;18.984;2023-06-26T01:55:21;17.60;;;12.90;;
43817;SDS011;29868;47.360;18.984;2023-06-26T01:57:54;16.67;;;12.85;;
43817;SDS011;29868;47.360;18.984;2023-06-26T02:00:21;16.55;;;13.35;;
43817;SDS011;29868;47.360;18.984;2023-06-26T02:02:49;19.17;;;14.18;;
43817;SDS011;29868;47.360;18.984;2023-06-26T02:05:14;17.33;;;12.10;;
43817;SDS011;29868;47.360;18.984;2023-06-26T02:07:40;16.80;;;13.05;;
43817;SDS011;29868;47.360;18.984;2023-06-26T02:10:06;19.40;;;14.07;;
43817;SDS011;29868;47.360;18.984;2023-06-26T02:12:32;18.80;;;14.38;;
43817;SDS011;29868;47.360;18.984;2023-06-26T02:14:57;16.17;;;13.30;;
43817;SDS011;29868;47.360;18.984;2023-06-26T02:17:22;16.85;;;13.02;;
43817;SDS011;29868;47.360;18.984;2023-06-26T02:19:48;18.25;;;13.27;;
43817;SDS011;29868;47.360;18.984;2023-06-26T02:22:14;17.45;;;13.65;;
43817;SDS011;29868;47.360;18.984;2023-06-26T02:24:40;18.23;;;14.07;;
43817;SDS011;29868;47.360;18.984;2023-06-26T02:27:06;19.65;;;14.18;;
43817;SDS011;29868;47.360;18.984;2023-06-26T02:29:31;17.50;;;13.73;;
43817;SDS011;29868;47.360;18.984;2023-06-26T02:31:56;16.73;;;13.50;;
43817;SDS011;29868;47.360;18.984;2023-06-26T02:34:22;18.80;;;13.88;;
43817;SDS011;29868;47.360;18.984;2023-06-26T02:36:47;18.75;;;14.15;;
43817;SDS011;29868;47.360;18.984;2023-06-26T02:39:13;20.33;;;13.80;;
43817;SDS011;29868;47.360;18.984;2023-06-26T02:41:39;18.30;;;14.23;;
43817;SDS011;29868;47.360;18.984;2023-06-26T02:44:04;18.80;;;14.52;;
43817;SDS011;29868;47.360;18.984;2023-06-26T02:46:31;17.73;;;14.20;;
43817;SDS011;29868;47.360;18.984;2023-06-26T02:48:56;19.05;;;14.52;;
43817;SDS011;29868;47.360;18.984;2023-06-26T02:51:22;17.13;;;14.18;;
43817;SDS011;29868;47.360;18.984;2023-06-26T02:53:47;18.08;;;14.63;;
43817;SDS011;29868;47.360;18.984;2023-06-26T02:56:12;18.38;;;13.80;;
43817;SDS011;29868;47.360;18.984;2023-06-26T02:58:38;21.38;;;14.40;;
43817;SDS011;29868;47.360;18.984;2023-06-26T03:01:03;19.10;;;14.27;;
43817;SDS011;29868;47.360;18.984;2023-06-26T03:03:28;19.70;;;14.25;;
43817;SDS011;29868;47.360;18.984;2023-06-26T03:05:54;19.10;;;14.43;;
43817;SDS011;29868;47.360;18.984;2023-06-26T03:08:19;18.77;;;14.85;;
43817;SDS011;29868;47.360;18.984;2023-06-26T03:10:45;18.88;;;14.90;;
43817;SDS011;29868;47.360;18.984;2023-06-26T03:13:10;21.65;;;15.02;;
43817;SDS011;29868;47.360;18.984;2023-06-26T03:15:35;19.15;;;14.90;;
43817;SDS011;29868;47.360;18.984;2023-06-26T03:18:01;18.95;;;14.63;;
43817;SDS011;29868;47.360;18.984;2023-06-26T03:20:26;18.40;;;13.55;;
43817;SDS011;29868;47.360;18.984;2023-06-26T03:22:52;17.38;;;14.15;;
43817;SDS011;29868;47.360;18.984;2023-06-26T03:25:17;17.85;;;14.48;;
43817;SDS011;29868;47.360;18.984;2023-06-26T03:27:42;21.08;;;14.15;;
43817;SDS011;29868;47.360;18.984;2023-06-26T03:30:08;19.13;;;13.18;;
43817;SDS011;29868;47.360;18.984;2023-06-26T03:32:34;15.88;;;13.02;;
43817;SDS011;29868;47.360;18.984;2023-06-26T03:34:59;17.08;;;12.32;;
43817;SDS011;29868;47.360;18.984;2023-06-26T03:37:28;19.80;;;14.10;;
43817;SDS011;29868;47.360;18.984;2023-06-26T03:39:53;15.45;;;12.13;;
43817;SDS011;29868;47.360;18.984;2023-06-26T03:42:19;16.25;;;12.93;;
43817;SDS011;29868;47.360;18.984;2023-06-26T03:44:44;16.40;;;12.13;;
43817;SDS011;29868;47.360;18.984;2023-06-26T03:47:10;18.13;;;12.52;;
43817;SDS011;29868;47.360;18.984;2023-06-26T03:49:35;16.77;;;11.23;;
43817;SDS011;29868;47.360;18.984;2023-06-26T03:52:00;16.90;;;11.75;;
43817;SDS011;29868;47.360;18.984;2023-06-26T03:54:26;14.00;;;11.93;;
43817;SDS011;29868;47.360;18.984;2023-06-26T03:56:51;13.27;;;11.15;;
43817;SDS011;29868;47.360;18.984;2023-06-26T03:59:17;16.67;;;10.70;;
43817;SDS011;29868;47.360;18.984;2023-06-26T04:01:42;14.13;;;9.60;;
43817;SDS011;29868;47.360;18.984;2023-06-26T04:04:08;11.30;;;9.15;;
43817;SDS011;29868;47.360;18.984;2023-06-26T04:06:34;13.30;;;9.48;;
43817;SDS011;29868;47.360;18.984;2023-06-26T04:08:59;13.43;;;8.55;;
43817;SDS011;29868;47.360;18.984;2023-06-26T04:11:24;12.85;;;8.48;;
43817;SDS011;29868;47.360;18.984;2023-06-26T04:13:50;13.52;;;8.63;;
43817;SDS011;29868;47.360;18.984;2023-06-26T04:16:16;11.25;;;8.57;;
43817;SDS011;29868;47.360;18.984;2023-06-26T04:18:41;11.05;;;7.97;;
43817;SDS011;29868;47.360;18.984;2023-06-26T04:21:07;11.00;;;7.60;;
43817;SDS011;29868;47.360;18.984;2023-06-26T04:23:33;10.32;;;7.80;;
43817;SDS011;29868;47.360;18.984;2023-06-26T04:25:59;10.65;;;8.02;;
43817;SDS011;29868;47.360;18.984;2023-06-26T04:28:25;9.07;;;7.13;;
43817;SDS011;29868;47.360;18.984;2023-06-26T04:30:51;9.25;;;7.55;;
43817;SDS011;29868;47.360;18.984;2023-06-26T04:33:16;9.45;;;6.70;;
43817;SDS011;29868;47.360;18.984;2023-06-26T04:35:42;10.20;;;6.65;;
43817;SDS011;29868;47.360;18.984;2023-06-26T04:38:09;9.43;;;6.50;;
43817;SDS011;29868;47.360;18.984;2023-06-26T04:40:35;10.65;;;7.05;;
43817;SDS011;29868;47.360;18.984;2023-06-26T04:43:01;8.30;;;6.63;;
43817;SDS011;29868;47.360;18.984;2023-06-26T04:45:26;7.70;;;6.50;;
43817;SDS011;29868;47.360;18.984;2023-06-26T04:47:51;9.88;;;7.05;;
43817;SDS011;29868;47.360;18.984;2023-06-26T04:50:17;9.55;;;6.82;;
43817;SDS011;29868;47.360;18.984;2023-06-26T04:52:44;8.65;;;6.55;;
43817;SDS011;29868;47.360;18.984;2023-06-26T04:55:09;11.43;;;7.10;;
43817;SDS011;29868;47.360;18.984;2023-06-26T04:57:35;9.57;;;7.00;;
43817;SDS011;29868;47.360;18.984;2023-06-26T05:00:00;9.63;;;7.25;;
43817;SDS011;29868;47.360;18.984;2023-06-26T05:02:26;8.30;;;6.55;;
43817;SDS011;29868;47.360;18.984;2023-06-26T05:04:52;9.43;;;6.55;;
43817;SDS011;29868;47.360;18.984;2023-06-26T05:07:17;9.30;;;6.90;;
43817;SDS011;29868;47.360;18.984;2023-06-26T05:09:42;8.18;;;6.07;;
43817;SDS011;29868;47.360;18.984;2023-06-26T05:12:08;8.75;;;6.57;;
43817;SDS011;29868;47.360;18.984;2023-06-26T05:14:33;7.63;;;6.05;;
43817;SDS011;29868;47.360;18.984;2023-06-26T05:16:59;10.50;;;6.75;;
43817;SDS011;29868;47.360;18.984;2023-06-26T05:19:24;9.05;;;6.40;;
43817;SDS011;29868;47.360;18.984;2023-06-26T05:21:50;8.40;;;6.30;;
43817;SDS011;29868;47.360;18.984;2023-06-26T05:24:16;9.40;;;6.35;;
43817;SDS011;29868;47.360;18.984;2023-06-26T05:26:42;8.68;;;6.80;;
43817;SDS011;29868;47.360;18.984;2023-06-26T05:29:07;8.30;;;6.13;;
43817;SDS011;29868;47.360;18.984;2023-06-26T05:31:33;10.85;;;6.82;;
43817;SDS011;29868;47.360;18.984;2023-06-26T05:34:03;8.73;;;6.35;;
43817;SDS011;29868;47.360;18.984;2023-06-26T05:36:30;11.35;;;6.47;;
43817;SDS011;29868;47.360;18.984;2023-06-26T05:38:58;10.80;;;6.30;;
43817;SDS011;29868;47.360;18.984;2023-06-26T05:41:23;9.30;;;6.00;;
43817;SDS011;29868;47.360;18.984;2023-06-26T05:43:49;8.20;;;6.00;;
43817;SDS011;29868;47.360;18.984;2023-06-26T05:46:15;9.15;;;6.00;;
43817;SDS011;29868;47.360;18.984;2023-06-26T05:48:40;8.25;;;5.80;;
43817;SDS011;29868;47.360;18.984;2023-06-26T05:51:06;7.68;;;5.35;;
43817;SDS011;29868;47.360;18.984;2023-06-26T05:53:32;7.57;;;5.88;;
43817;SDS011;29868;47.360;18.984;2023-06-26T05:55:58;6.53;;;5.57;;
43817;SDS011;29868;47.360;18.984;2023-06-26T05:58:25;7.57;;;5.38;;
43817;SDS011;29868;47.360;18.984;2023-06-26T06:00:52;7.65;;;5.57;;
43817;SDS011;29868;47.360;18.984;2023-06-26T06:03:18;8.63;;;6.13;;
43817;SDS011;29868;47.360;18.984;2023-06-26T06:05:43;9.68;;;5.90;;
43817;SDS011;29868;47.360;18.984;2023-06-26T06:08:09;7.10;;;5.70;;
43817;SDS011;29868;47.360;18.984;2023-06-26T06:10:34;11.13;;;6.20;;
43817;SDS011;29868;47.360;18.984;2023-06-26T06:13:00;10.38;;;5.55;;
43817;SDS011;29868;47.360;18.984;2023-06-26T06:15:25;9.50;;;6.07;;
43817;SDS011;29868;47.360;18.984;2023-06-26T06:17:51;11.63;;;6.25;;
43817;SDS011;29868;47.360;18.984;2023-06-26T06:20:17;6.70;;;5.50;;
43817;SDS011;29868;47.360;18.984;2023-06-26T06:22:44;8.65;;;5.90;;
43817;SDS011;29868;47.360;18.984;2023-06-26T06:25:10;7.00;;;5.43;;
43817;SDS011;29868;47.360;18.984;2023-06-26T06:27:36;7.38;;;6.18;;
43817;SDS011;29868;47.360;18.984;2023-06-26T06:30:01;8.52;;;5.72;;
43817;SDS011;29868;47.360;18.984;2023-06-26T06:32:27;7.30;;;5.47;;
43817;SDS011;29868;47.360;18.984;2023-06-26T06:34:53;10.63;;;6.15;;
43817;SDS011;29868;47.360;18.984;2023-06-26T06:37:18;8.95;;;6.00;;
43817;SDS011;29868;47.360;18.984;2023-06-26T06:39:44;7.68;;;5.35;;
43817;SDS011;29868;47.360;18.984;2023-06-26T06:42:09;9.45;;;5.50;;
43817;SDS011;29868;47.360;18.984;2023-06-26T06:44:35;9.05;;;5.13;;
43817;SDS011;29868;47.360;18.984;2023-06-26T06:47:00;7.75;;;5.35;;
43817;SDS011;29868;47.360;18.984;2023-06-26T06:49:25;8.32;;;5.60;;
43817;SDS011;29868;47.360;18.984;2023-06-26T06:51:51;9.60;;;5.10;;
43817;SDS011;29868;47.360;18.984;2023-06-26T06:54:16;8.57;;;5.18;;
43817;SDS011;29868;47.360;18.984;2023-06-26T06:56:42;7.80;;;5.80;;
43817;SDS011;29868;47.360;18.984;2023-06-26T06:59:08;9.07;;;5.35;;
43817;SDS011;29868;47.360;18.984;2023-06-26T07:01:33;10.23;;;5.63;;
43817;SDS011;29868;47.360;18.984;2023-06-26T07:03:59;9.73;;;5.40;;
43817;SDS011;29868;47.360;18.984;2023-06-26T07:06:24;7.82;;;5.18;;
43817;SDS011;29868;47.360;18.984;2023-06-26T07:08:50;8.88;;;5.82;;
43817;SDS011;29868;47.360;18.984;2023-06-26T07:11:15;7.93;;;5.47;;
43817;SDS011;29868;47.360;18.984;2023-06-26T07:13:41;8.05;;;5.80;;
43817;SDS011;29868;47.360;18.984;2023-06-26T07:16:06;7.70;;;5.93;;
43817;SDS011;29868;47.360;18.984;2023-06-26T07:18:32;8.00;;;5.57;;
43817;SDS011;29868;47.360;18.984;2023-06-26T07:20:58;6.82;;;5.40;;
43817;SDS011;29868;47.360;18.984;2023-06-26T07:23:23;7.72;;;5.13;;
43817;SDS011;29868;47.360;18.984;2023-06-26T07:25:48;8.15;;;5.00;;
43817;SDS011;29868;47.360;18.984;2023-06-26T07:28:14;6.75;;;5.35;;
43817;SDS011;29868;47.360;18.984;2023-06-26T07:30:39;7.97;;;5.05;;
43817;SDS011;29868;47.360;18.984;2023-06-26T07:33:05;7.80;;;5.43;;
43817;SDS011;29868;47.360;18.984;2023-06-26T07:35:30;8.60;;;5.75;;
43817;SDS011;29868;47.360;18.984;2023-06-26T07:37:56;6.88;;;5.15;;
43817;SDS011;29868;47.360;18.984;2023-06-26T07:40:21;6.88;;;5.35;;
43817;SDS011;29868;47.360;18.984;2023-06-26T07:42:47;7.55;;;5.13;;
43817;SDS011;29868;47.360;18.984;2023-06-26T07:45:12;6.47;;;5.07;;
43817;SDS011;29868;47.360;18.984;2023-06-26T07:47:38;7.32;;;5.47;;
43817;SDS011;29868;47.360;18.984;2023-06-26T07:50:04;8.05;;;5.45;;
43817;SDS011;29868;47.360;18.984;2023-06-26T07:52:30;7.47;;;5.47;;
43817;SDS011;29868;47.360;18.984;2023-06-26T07:54:55;7.35;;;4.80;;
43817;SDS011;29868;47.360;18.984;2023-06-26T07:57:21;8.43;;;5.40;;
43817;SDS011;29868;47.360;18.984;2023-06-26T07:59:46;9.70;;;5.95;;
43817;SDS011;29868;47.360;18.984;2023-06-26T08:02:12;8.52;;;5.50;;
43817;SDS011;29868;47.360;18.984;2023-06-26T08:04:37;8.02;;;5.85;;
43817;SDS011;29868;47.360;18.984;2023-06-26T08:07:03;8.32;;;5.30;;
43817;SDS011;29868;47.360;18.984;2023-06-26T08:09:29;8.10;;;5.70;;
43817;SDS011;29868;47.360;18.984;2023-06-26T08:11:55;7.00;;;5.10;;
43817;SDS011;29868;47.360;18.984;2023-06-26T08:14:21;7.25;;;5.30;;
43817;SDS011;29868;47.360;18.984;2023-06-26T08:16:47;7.85;;;5.05;;
43817;SDS011;29868;47.360;18.984;2023-06-26T08:19:13;8.45;;;5.25;;
43817;SDS011;29868;47.360;18.984;2023-06-26T08:21:42;7.07;;;5.15;;
43817;SDS011;29868;47.360;18.984;2023-06-26T08:24:09;8.25;;;5.30;;
43817;SDS011;29868;47.360;18.984;2023-06-26T08:26:35;7.97;;;5.45;;
43817;SDS011;29868;47.360;18.984;2023-06-26T08:29:00;10.10;;;5.95;;
43817;SDS011;29868;47.360;18.984;2023-06-26T08:31:32;7.78;;;5.22;;
43817;SDS011;29868;47.360;18.984;2023-06-26T08:33:59;9.38;;;5.55;;
43817;SDS011;29868;47.360;18.984;2023-06-26T08:36:25;9.23;;;5.30;;
43817;SDS011;29868;47.360;18.984;2023-06-26T08:38:50;7.43;;;5.65;;
43817;SDS011;29868;47.360;18.984;2023-06-26T08:41:15;7.82;;;5.63;;
43817;SDS011;29868;47.360;18.984;2023-06-26T08:43:41;8.52;;;5.53;;
43817;SDS011;29868;47.360;18.984;2023-06-26T08:46:07;7.07;;;5.45;;
43817;SDS011;29868;47.360;18.984;2023-06-26T08:48:32;8.50;;;6.15;;
43817;SDS011;29868;47.360;18.984;2023-06-26T08:51:11;7.90;;;5.65;;
43817;SDS011;29868;47.360;18.984;2023-06-26T08:54:00;7.82;;;5.72;;
43817;SDS011;29868;47.360;18.984;2023-06-26T08:56:35;8.50;;;5.72;;
43817;SDS011;29868;47.360;18.984;2023-06-26T08:59:03;7.95;;;5.65;;
43817;SDS011;29868;47.360;18.984;2023-06-26T09:01:29;7.88;;;5.70;;
43817;SDS011;29868;47.360;18.984;2023-06-26T09:03:56;10.18;;;5.43;;
43817;SDS011;29868;47.360;18.984;2023-06-26T09:06:22;8.52;;;5.65;;
43817;SDS011;29868;47.360;18.984;2023-06-26T09:08:47;7.88;;;5.55;;
43817;SDS011;29868;47.360;18.984;2023-06-26T09:11:13;8.27;;;5.45;;
43817;SDS011;29868;47.360;18.984;2023-06-26T09:13:39;7.35;;;5.50;;
43817;SDS011;29868;47.360;18.984;2023-06-26T09:16:07;8.00;;;5.50;;
43817;SDS011;29868;47.360;18.984;2023-06-26T09:18:34;7.43;;;5.47;;
43817;SDS011;29868;47.360;18.984;2023-06-26T09:21:00;8.23;;;5.70;;
43817;SDS011;29868;47.360;18.984;2023-06-26T09:23:31;7.90;;;5.32;;
43817;SDS011;29868;47.360;18.984;2023-06-26T09:25:56;7.70;;;5.78;;
43817;SDS011;29868;47.360;18.984;2023-06-26T09:28:21;7.43;;;5.68;;
43817;SDS011;29868;47.360;18.984;2023-06-26T09:30:47;8.15;;;5.35;;
43817;SDS011;29868;47.360;18.984;2023-06-26T09:33:15;8.05;;;5.72;;
43817;SDS011;29868;47.360;18.984;2023-06-26T09:35:45;9.63;;;5.85;;
43817;SDS011;29868;47.360;18.984;2023-06-26T09:38:13;9.65;;;5.95;;
43817;SDS011;29868;47.360;18.984;2023-06-26T09:40:39;7.72;;;5.55;;
43817;SDS011;29868;47.360;18.984;2023-06-26T09:43:06;8.75;;;5.55;;
43817;SDS011;29868;47.360;18.984;2023-06-26T09:45:33;6.45;;;5.47;;
43817;SDS011;29868;47.360;18.984;2023-06-26T09:48:05;8.52;;;6.03;;
43817;SDS011;29868;47.360;18.984;2023-06-26T09:50:33;6.97;;;5.70;;
43817;SDS011;29868;47.360;18.984;2023-06-26T09:53:09;8.05;;;5.78;;
43817;SDS011;29868;47.360;18.984;2023-06-26T09:55:35;7.85;;;5.88;;
43817;SDS011;29868;47.360;18.984;2023-06-26T09:58:04;7.28;;;5.43;;
43817;SDS011;29868;47.360;18.984;2023-06-26T10:00:31;9.75;;;5.90;;
43817;SDS011;29868;47.360;18.984;2023-06-26T10:02:58;7.30;;;5.68;;
43817;SDS011;29868;47.360;18.984;2023-06-26T10:05:26;7.07;;;5.88;;
43817;SDS011;29868;47.360;18.984;2023-06-26T10:07:52;8.95;;;5.45;;
43817;SDS011;29868;47.360;18.984;2023-06-26T10:10:19;8.70;;;5.63;;
43817;SDS011;29868;47.360;18.984;2023-06-26T10:12:48;8.40;;;5.57;;
43817;SDS011;29868;47.360;18.984;2023-06-26T10:15:16;9.23;;;5.80;;
43817;SDS011;29868;47.360;18.984;2023-06-26T10:17:43;8.57;;;5.53;;
43817;SDS011;29868;47.360;18.984;2023-06-26T10:20:11;8.38;;;5.93;;
43817;SDS011;29868;47.360;18.984;2023-06-26T10:22:46;7.43;;;5.70;;
43817;SDS011;29868;47.360;18.984;2023-06-26T10:25:14;10.25;;;5.90;;
43817;SDS011;29868;47.360;18.984;2023-06-26T10:27:59;7.90;;;6.05;;
43817;SDS011;29868;47.360;18.984;2023-06-26T10:30:29;7.35;;;6.10;;
43817;SDS011;29868;47.360;18.984;2023-06-26T10:32:58;7.55;;;5.82;;
43817;SDS011;29868;47.360;18.984;2023-06-26T10:35:25;9.25;;;6.70;;
43817;SDS011;29868;47.360;18.984;2023-06-26T10:37:52;9.73;;;6.50;;
43817;SDS011;29868;47.360;18.984;2023-06-26T10:40:27;8.70;;;5.82;;
43817;SDS011;29868;47.360;18.984;2023-06-26T10:43:06;8.63;;;5.72;;
43817;SDS011;29868;47.360;18.984;2023-06-26T10:45:36;7.80;;;6.25;;
43817;SDS011;29868;47.360;18.984;2023-06-26T10:48:09;9.90;;;6.30;;
43817;SDS011;29868;47.360;18.984;2023-06-26T10:50:34;6.72;;;5.85;;
43817;SDS011;29868;47.360;18.984;2023-06-26T10:53:09;9.10;;;6.22;;
43817;SDS011;29868;47.360;18.984;2023-06-26T10:55:36;9.15;;;6.50;;
43817;SDS011;29868;47.360;18.984;2023-06-26T10:58:02;8.85;;;6.00;;
43817;SDS011;29868;47.360;18.984;2023-06-26T11:00:28;9.60;;;6.07;;
43817;SDS011;29868;47.360;18.984;2023-06-26T11:02:53;8.15;;;6.38;;
43817;SDS011;29868;47.360;18.984;2023-06-26T11:05:29;8.80;;;6.13;;
43817;SDS011;29868;47.360;18.984;2023-06-26T11:10:51;7.80;;;6.05;;
43817;SDS011;29868;47.360;18.984;2023-06-26T11:13:18;8.15;;;5.85;;
43817;SDS011;29868;47.360;18.984;2023-06-26T11:15:45;7.88;;;5.85;;
43817;SDS011;29868;47.360;18.984;2023-06-26T11:18:14;7.65;;;5.60;;
43817;SDS011;29868;47.360;18.984;2023-06-26T11:20:40;7.47;;;5.38;;
43817;SDS011;29868;47.360;18.984;2023-06-26T11:23:05;7.43;;;5.30;;
43817;SDS011;29868;47.360;18.984;2023-06-26T11:25:37;8.57;;;5.13;;
43817;SDS011;29868;47.360;18.984;2023-06-26T11:28:03;6.90;;;5.32;;
43817;SDS011;29868;47.360;18.984;2023-06-26T11:30:30;7.20;;;5.50;;
43817;SDS011;29868;47.360;18.984;2023-06-26T11:33:05;6.72;;;5.32;;
43817;SDS011;29868;47.360;18.984;2023-06-26T11:35:32;7.90;;;5.65;;
43817;SDS011;29868;47.360;18.984;2023-06-26T11:37:59;8.65;;;5.72;;
43817;SDS011;29868;47.360;18.984;2023-06-26T11:40:29;8.00;;;6.00;;
43817;SDS011;29868;47.360;18.984;2023-06-26T11:43:00;9.23;;;6.00;;
43817;SDS011;29868;47.360;18.984;2023-06-26T11:45:30;8.20;;;5.88;;
43817;SDS011;29868;47.360;18.984;2023-06-26T11:47:56;6.47;;;5.20;;
43817;SDS011;29868;47.360;18.984;2023-06-26T11:50:23;7.88;;;5.32;;
43817;SDS011;29868;47.360;18.984;2023-06-26T11:52:55;7.38;;;5.38;;
43817;SDS011;29868;47.360;18.984;2023-06-26T11:55:22;6.63;;;5.03;;
43817;SDS011;29868;47.360;18.984;2023-06-26T11:57:55;6.40;;;5.00;;
43817;SDS011;29868;47.360;18.984;2023-06-26T12:00:22;7.13;;;5.40;;
43817;SDS011;29868;47.360;18.984;2023-06-26T12:02:47;6.70;;;5.35;;
43817;SDS011;29868;47.360;18.984;2023-06-26T12:05:14;7.95;;;4.95;;
43817;SDS011;29868;47.360;18.984;2023-06-26T12:07:44;7.78;;;5.32;;
43817;SDS011;29868;47.360;18.984;2023-06-26T12:10:12;6.45;;;4.60;;
43817;SDS011;29868;47.360;18.984;2023-06-26T12:12:39;7.07;;;4.70;;
43817;SDS011;29868;47.360;18.984;2023-06-26T12:15:06;7.18;;;5.20;;
43817;SDS011;29868;47.360;18.984;2023-06-26T12:17:33;8.80;;;5.10;;
43817;SDS011;29868;47.360;18.984;2023-06-26T12:19:58;8.30;;;5.38;;
43817;SDS011;29868;47.360;18.984;2023-06-26T12:22:24;5.93;;;4.93;;
43817;SDS011;29868;47.360;18.984;2023-06-26T12:35:46;6.45;;;4.60;;
43817;SDS011;29868;47.360;18.984;2023-06-26T12:38:11;6.18;;;4.93;;
43817;SDS011;29868;47.360;18.984;2023-06-26T12:40:46;7.75;;;5.10;;
43817;SDS011;29868;47.360;18.984;2023-06-26T12:43:12;7.05;;;5.13;;
43817;SDS011;29868;47.360;18.984;2023-06-26T12:45:47;7.30;;;5.20;;
43817;SDS011;29868;47.360;18.984;2023-06-26T12:48:13;6.38;;;5.00;;
43817;SDS011;29868;47.360;18.984;2023-06-26T12:50:44;7.40;;;5.05;;
43817;SDS011;29868;47.360;18.984;2023-06-26T12:53:10;7.22;;;5.43;;
43817;SDS011;29868;47.360;18.984;2023-06-26T12:55:36;6.15;;;4.80;;
43817;SDS011;29868;47.360;18.984;2023-06-26T12:58:01;6.38;;;4.70;;
43817;SDS011;29868;47.360;18.984;2023-06-26T13:00:27;5.93;;;5.07;;
43817;SDS011;29868;47.360;18.984;2023-06-26T13:02:52;6.83;;;4.93;;
43817;SDS011;29868;47.360;18.984;2023-06-26T13:05:17;8.23;;;5.10;;
43817;SDS011;29868;47.360;18.984;2023-06-26T13:07:43;6.38;;;4.93;;
43817;SDS011;29868;47.360;18.984;2023-06-26T13:10:08;6.53;;;5.22;;
43817;SDS011;29868;47.360;18.984;2023-06-26T13:12:34;6.55;;;5.25;;
43817;SDS011;29868;47.360;18.984;2023-06-26T13:14:59;6.97;;;5.30;;
43817;SDS011;29868;47.360;18.984;2023-06-26T13:17:25;6.85;;;5.30;;
43817;SDS011;29868;47.360;18.984;2023-06-26T13:19:50;9.18;;;4.90;;
43817;SDS011;29868;47.360;18.984;2023-06-26T13:22:15;6.07;;;4.93;;
43817;SDS011;29868;47.360;18.984;2023-06-26T13:24:41;7.32;;;5.10;;
43817;SDS011;29868;47.360;18.984;2023-06-26T13:27:07;6.95;;;4.90;;
43817;SDS011;29868;47.360;18.984;2023-06-26T13:29:32;7.13;;;5.20;;
43817;SDS011;29868;47.360;18.984;2023-06-26T13:31:58;6.15;;;4.63;;
43817;SDS011;29868;47.360;18.984;2023-06-26T13:34:23;7.50;;;4.65;;
43817;SDS011;29868;47.360;18.984;2023-06-26T13:36:52;6.82;;;4.78;;
43817;SDS011;29868;47.360;18.984;2023-06-26T13:39:18;6.00;;;4.65;;
43817;SDS011;29868;47.360;18.984;2023-06-26T13:41:44;5.75;;;4.60;;
43817;SDS011;29868;47.360;18.984;2023-06-26T13:44:09;7.03;;;4.57;;
43817;SDS011;29868;47.360;18.984;2023-06-26T13:46:35;7.22;;;4.68;;
43817;SDS011;29868;47.360;18.984;2023-06-26T13:49:00;6.53;;;4.30;;
43817;SDS011;29868;47.360;18.984;2023-06-26T13:51:26;7.35;;;4.90;;
43817;SDS011;29868;47.360;18.984;2023-06-26T13:53:51;6.05;;;4.45;;
43817;SDS011;29868;47.360;18.984;2023-06-26T13:56:17;7.28;;;4.55;;
43817;SDS011;29868;47.360;18.984;2023-06-26T13:58:42;8.23;;;4.55;;
43817;SDS011;29868;47.360;18.984;2023-06-26T14:01:08;7.15;;;4.60;;
43817;SDS011;29868;47.360;18.984;2023-06-26T14:03:33;6.57;;;4.68;;
43817;SDS011;29868;47.360;18.984;2023-06-26T14:05:59;5.75;;;4.55;;
43817;SDS011;29868;47.360;18.984;2023-06-26T14:08:24;5.32;;;4.07;;
43817;SDS011;29868;47.360;18.984;2023-06-26T14:10:49;6.07;;;4.60;;
43817;SDS011;29868;47.360;18.984;2023-06-26T14:13:15;7.22;;;4.68;;
43817;SDS011;29868;47.360;18.984;2023-06-26T14:15:41;5.60;;;4.10;;
43817;SDS011;29868;47.360;18.984;2023-06-26T14:18:07;7.00;;;4.53;;
43817;SDS011;29868;47.360;18.984;2023-06-26T14:20:32;6.30;;;4.40;;
43817;SDS011;29868;47.360;18.984;2023-06-26T14:22:58;7.63;;;4.70;;
43817;SDS011;29868;47.360;18.984;2023-06-26T14:25:24;7.88;;;4.10;;
43817;SDS011;29868;47.360;18.984;2023-06-26T14:27:51;5.80;;;4.20;;
43817;SDS011;29868;47.360;18.984;2023-06-26T14:30:16;5.13;;;4.13;;
43817;SDS011;29868;47.360;18.984;2023-06-26T14:32:42;5.40;;;4.32;;
43817;SDS011;29868;47.360;18.984;2023-06-26T14:35:07;5.75;;;4.25;;
43817;SDS011;29868;47.360;18.984;2023-06-26T14:37:33;5.97;;;4.30;;
43817;SDS011;29868;47.360;18.984;2023-06-26T14:40:00;6.05;;;4.40;;